Time;durP1;ratioP1;P1;durP2;ratioP2;P2;SDS_P1;SDS_P2;PMS_P1;PMS_P2;Temp;Humidity;BMP_temperature;BMP_pressure;BME280_temperature;BME280_humidity;BME280_pressure;Samples;Min_cycle;Max_cycle;Signal;HPM_P1;HPM_P2
2022/09/14 00:02:17;;;;;;;8.33;7.40;;;;;;;;;;753978;185;921301;-54
2022/09/14 00:04:43;;;;;;;10.87;7.57;;;;;;;;;;754345;183;919865;-54
2022/09/14 00:07:09;;;;;;;12.40;7.60;;;;;;;;;;760913;182;919885;-55
2022/09/14 00:09:35;;;;;;;9.50;8.30;;;;;;;;;;744913;187;943202;-55
2022/09/14 00:12:01;;;;;;;8.82;7.28;;;;;;;;;;749293;183;919502;-56
2022/09/14 00:14:27;;;;;;;8.40;7.05;;;;;;;;;;755114;184;919440;-55
2022/09/14 00:16:52;;;;;;;12.23;7.00;;;;;;;;;;761791;182;918945;-55
2022/09/14 00:19:21;;;;;;;8.50;6.37;;;;;;;;;;755674;184;919638;-55
2022/09/14 00:21:49;;;;;;;8.90;7.27;;;;;;;;;;750124;184;920269;-55
2022/09/14 00:24:15;;;;;;;9.40;7.23;;;;;;;;;;762005;184;919543;-55
2022/09/14 00:26:41;;;;;;;9.67;7.30;;;;;;;;;;754719;185;819402;-56
2022/09/14 00:29:06;;;;;;;7.10;6.37;;;;;;;;;;752636;185;919568;-55
2022/09/14 00:31:33;;;;;;;8.95;7.18;;;;;;;;;;752799;185;919539;-55
2022/09/14 00:33:58;;;;;;;7.27;6.30;;;;;;;;;;753928;180;918853;-54
2022/09/14 00:36:24;;;;;;;12.20;7.43;;;;;;;;;;746622;184;918485;-54
2022/09/14 00:38:50;;;;;;;9.57;7.35;;;;;;;;;;752917;184;902617;-56
2022/09/14 00:41:16;;;;;;;9.03;7.20;;;;;;;;;;763223;184;929298;-54
2022/09/14 00:43:47;;;;;;;8.47;6.70;;;;;;;;;;756740;184;917557;-55
2022/09/14 00:46:13;;;;;;;8.50;7.60;;;;;;;;;;752211;183;918127;-55
2022/09/14 00:48:39;;;;;;;9.50;7.77;;;;;;;;;;752435;185;918765;-55
2022/09/14 00:51:05;;;;;;;9.63;7.80;;;;;;;;;;758681;184;919143;-55
2022/09/14 00:53:31;;;;;;;10.63;8.17;;;;;;;;;;752416;185;919079;-55
2022/09/14 00:55:57;;;;;;;9.47;7.50;;;;;;;;;;756268;184;918981;-55
2022/09/14 00:58:22;;;;;;;12.57;7.27;;;;;;;;;;760924;184;919232;-55
2022/09/14 01:00:48;;;;;;;12.50;7.00;;;;;;;;;;747042;182;919508;-55
2022/09/14 01:03:14;;;;;;;9.35;7.55;;;;;;;;;;751369;184;919953;-55
2022/09/14 01:05:55;;;;;;;11.50;7.20;;;;;;;;;;756044;181;919788;-55
2022/09/14 01:08:37;;;;;;;12.25;9.27;;;;;;;;;;762144;182;918954;-55
2022/09/14 01:11:03;;;;;;;9.50;7.97;;;;;;;;;;759351;183;920811;-55
2022/09/14 01:13:29;;;;;;;10.20;9.03;;;;;;;;;;748382;184;921978;-55
2022/09/14 01:15:58;;;;;;;11.70;9.07;;;;;;;;;;755207;184;921120;-55
2022/09/14 01:18:24;;;;;;;12.50;9.07;;;;;;;;;;758286;184;921884;-56
2022/09/14 01:20:50;;;;;;;12.60;9.97;;;;;;;;;;756585;184;919176;-54
2022/09/14 01:23:16;;;;;;;10.87;8.93;;;;;;;;;;755304;184;920034;-55
2022/09/14 01:25:48;;;;;;;9.73;8.77;;;;;;;;;;753936;184;816566;-55
2022/09/14 01:28:14;;;;;;;11.90;9.30;;;;;;;;;;755927;182;922597;-55
2022/09/14 01:30:39;;;;;;;13.63;9.57;;;;;;;;;;756138;184;817424;-56
2022/09/14 01:33:20;;;;;;;9.55;7.97;;;;;;;;;;755225;182;918897;-55
2022/09/14 01:35:46;;;;;;;9.80;8.60;;;;;;;;;;753194;184;920923;-54
2022/09/14 01:38:27;;;;;;;14.23;8.37;;;;;;;;;;759957;184;919134;-55
2022/09/14 01:40:53;;;;;;;9.13;7.20;;;;;;;;;;757314;181;918721;-55
2022/09/14 01:43:20;;;;;;;10.35;9.02;;;;;;;;;;747645;184;907836;-54
2022/09/14 01:45:47;;;;;;;10.10;8.17;;;;;;;;;;754538;184;925525;-54
2022/09/14 01:48:13;;;;;;;11.63;8.33;;;;;;;;;;753914;184;923473;-55
2022/09/14 01:50:38;;;;;;;9.70;7.13;;;;;;;;;;751135;184;920017;-54
2022/09/14 01:53:24;;;;;;;10.50;7.87;;;;;;;;;;746467;184;919213;-54
2022/09/14 01:55:53;;;;;;;9.20;7.90;;;;;;;;;;754552;183;914781;-55
2022/09/14 01:58:24;;;;;;;11.33;8.27;;;;;;;;;;747951;183;920468;-55
2022/09/14 02:00:49;;;;;;;13.70;8.55;;;;;;;;;;755934;184;878053;-56
2022/09/14 02:03:15;;;;;;;11.67;9.17;;;;;;;;;;765915;181;918569;-54
2022/09/14 02:06:02;;;;;;;11.80;8.73;;;;;;;;;;754139;184;921103;-55
2022/09/14 02:08:28;;;;;;;10.40;9.07;;;;;;;;;;750400;184;818092;-55
2022/09/14 02:10:53;;;;;;;11.70;9.47;;;;;;;;;;756173;184;818151;-54
2022/09/14 02:13:19;;;;;;;14.53;9.67;;;;;;;;;;757845;181;919795;-55
2022/09/14 02:15:45;;;;;;;13.57;10.90;;;;;;;;;;753119;184;919409;-55
2022/09/14 02:18:11;;;;;;;12.87;9.00;;;;;;;;;;755592;184;820547;-55
2022/09/14 02:20:37;;;;;;;13.60;9.00;;;;;;;;;;759559;184;919097;-55
2022/09/14 02:23:03;;;;;;;10.23;8.17;;;;;;;;;;753737;183;920105;-55
2022/09/14 02:25:28;;;;;;;12.90;9.93;;;;;;;;;;757078;184;817592;-55
2022/09/14 02:27:54;;;;;;;12.80;10.03;;;;;;;;;;751722;183;865441;-55
2022/09/14 02:30:20;;;;;;;11.97;8.07;;;;;;;;;;759092;184;914625;-57
2022/09/14 02:33:07;;;;;;;11.20;9.00;;;;;;;;;;752703;183;918066;-55
2022/09/14 02:35:32;;;;;;;11.50;9.17;;;;;;;;;;754661;183;907769;-54
2022/09/14 02:38:00;;;;;;;10.80;8.90;;;;;;;;;;754855;184;915950;-55
2022/09/14 02:40:30;;;;;;;13.20;9.60;;;;;;;;;;754996;184;808329;-55
2022/09/14 02:43:10;;;;;;;28.30;10.80;;;;;;;;;;757499;184;919629;-55
2022/09/14 02:45:38;;;;;;;15.13;10.20;;;;;;;;;;760015;184;921156;-55
2022/09/14 02:48:19;;;;;;;12.80;9.47;;;;;;;;;;755313;182;919677;-55
2022/09/14 02:50:48;;;;;;;13.77;10.55;;;;;;;;;;747857;184;920934;-55
2022/09/14 02:53:16;;;;;;;15.00;10.43;;;;;;;;;;754226;182;926904;-55
2022/09/14 02:55:42;;;;;;;17.87;11.10;;;;;;;;;;755436;181;921121;-55
2022/09/14 02:58:08;;;;;;;13.53;9.67;;;;;;;;;;754863;184;914946;-55
2022/09/14 03:00:35;;;;;;;14.70;10.10;;;;;;;;;;752635;184;920068;-55
2022/09/14 03:02:59;;;;;;;14.20;11.27;;;;;;;;;;757920;184;919602;-54
2022/09/14 03:05:25;;;;;;;15.17;11.03;;;;;;;;;;751905;183;919997;-55
2022/09/14 03:07:51;;;;;;;13.77;10.00;;;;;;;;;;755172;185;819637;-55
2022/09/14 03:10:17;;;;;;;12.50;10.87;;;;;;;;;;748996;185;919379;-55
2022/09/14 03:12:43;;;;;;;16.30;10.53;;;;;;;;;;754725;184;917774;-55
2022/09/14 03:15:09;;;;;;;11.95;9.95;;;;;;;;;;756893;184;817939;-55
2022/09/14 03:17:36;;;;;;;13.20;10.33;;;;;;;;;;751379;185;918968;-55
2022/09/14 03:20:02;;;;;;;13.77;10.97;;;;;;;;;;757960;184;927472;-56
2022/09/14 03:22:28;;;;;;;13.77;11.60;;;;;;;;;;753587;184;923166;-54
2022/09/14 03:24:54;;;;;;;17.30;11.67;;;;;;;;;;752276;184;918972;-55
2022/09/14 03:27:19;;;;;;;13.70;10.40;;;;;;;;;;757576;182;918965;-55
2022/09/14 03:29:45;;;;;;;15.70;11.00;;;;;;;;;;755360;184;817458;-55
2022/09/14 03:32:11;;;;;;;15.13;11.50;;;;;;;;;;752473;185;919528;-55
2022/09/14 03:34:37;;;;;;;16.37;12.90;;;;;;;;;;754124;184;1022062;-55
2022/09/14 03:37:03;;;;;;;15.53;11.03;;;;;;;;;;755535;185;919754;-55
2022/09/14 03:39:29;;;;;;;13.53;10.47;;;;;;;;;;752861;185;919809;-55
2022/09/14 03:41:54;;;;;;;18.10;12.50;;;;;;;;;;755212;182;919196;-55
2022/09/14 03:44:20;;;;;;;15.93;12.00;;;;;;;;;;761353;184;810582;-55
2022/09/14 03:46:46;;;;;;;18.03;13.30;;;;;;;;;;759144;184;919651;-56
2022/09/14 03:49:12;;;;;;;13.33;10.23;;;;;;;;;;755209;184;928909;-55
2022/09/14 03:51:38;;;;;;;15.27;11.10;;;;;;;;;;758905;184;918590;-55
2022/09/14 03:54:04;;;;;;;11.93;9.80;;;;;;;;;;750277;183;920838;-55
2022/09/14 03:56:30;;;;;;;15.00;10.43;;;;;;;;;;757486;184;919310;-55
2022/09/14 03:58:55;;;;;;;17.17;11.53;;;;;;;;;;751397;185;911906;-57
2022/09/14 04:01:21;;;;;;;14.47;9.60;;;;;;;;;;761769;182;915577;-55
2022/09/14 04:03:47;;;;;;;17.67;9.77;;;;;;;;;;751757;185;920375;-56
2022/09/14 04:06:14;;;;;;;12.70;9.63;;;;;;;;;;748879;182;919870;-56
2022/09/14 04:08:39;;;;;;;11.17;8.93;;;;;;;;;;758783;182;817219;-55
2022/09/14 04:11:09;;;;;;;14.00;8.80;;;;;;;;;;753935;184;914484;-55
2022/09/14 04:13:34;;;;;;;10.50;9.40;;;;;;;;;;758355;182;857626;-56
2022/09/14 04:16:00;;;;;;;14.57;10.33;;;;;;;;;;759997;184;918369;-55
2022/09/14 04:18:26;;;;;;;20.17;10.60;;;;;;;;;;753264;184;891573;-55
2022/09/14 04:20:53;;;;;;;12.83;9.90;;;;;;;;;;754804;184;919432;-55
2022/09/14 04:23:19;;;;;;;11.80;10.23;;;;;;;;;;751375;185;921475;-56
2022/09/14 04:25:45;;;;;;;14.60;10.30;;;;;;;;;;753349;182;918650;-55
2022/09/14 04:28:11;;;;;;;11.87;10.07;;;;;;;;;;751806;185;921121;-55
2022/09/14 04:30:36;;;;;;;13.77;9.23;;;;;;;;;;752582;184;919629;-55
2022/09/14 04:33:02;;;;;;;11.07;9.30;;;;;;;;;;762957;184;919846;-56
2022/09/14 04:35:28;;;;;;;11.97;10.00;;;;;;;;;;754612;182;919581;-56
2022/09/14 04:37:54;;;;;;;15.67;10.37;;;;;;;;;;755777;184;919612;-55
2022/09/14 04:40:20;;;;;;;12.03;10.17;;;;;;;;;;756632;185;922167;-55
2022/09/14 04:42:46;;;;;;;15.53;10.10;;;;;;;;;;753902;184;918775;-55
2022/09/14 04:45:12;;;;;;;12.40;10.30;;;;;;;;;;749490;186;920972;-55
2022/09/14 04:47:38;;;;;;;12.57;10.40;;;;;;;;;;752856;182;919268;-55
2022/09/14 04:50:04;;;;;;;13.70;10.67;;;;;;;;;;757079;185;919647;-55
2022/09/14 04:52:30;;;;;;;11.93;10.33;;;;;;;;;;750092;184;816380;-55
2022/09/14 04:54:56;;;;;;;12.53;10.60;;;;;;;;;;757747;184;919174;-56
2022/09/14 04:57:22;;;;;;;11.77;10.23;;;;;;;;;;759154;184;816276;-56
2022/09/14 04:59:48;;;;;;;13.10;10.23;;;;;;;;;;757461;184;919193;-56
2022/09/14 05:02:14;;;;;;;14.63;11.07;;;;;;;;;;757377;184;898705;-55
2022/09/14 05:04:41;;;;;;;14.53;10.47;;;;;;;;;;763313;184;918961;-55
2022/09/14 05:07:06;;;;;;;16.33;11.03;;;;;;;;;;754493;183;919391;-55
2022/09/14 05:09:32;;;;;;;13.53;10.20;;;;;;;;;;755578;184;920022;-55
2022/09/14 05:11:58;;;;;;;17.83;10.57;;;;;;;;;;761564;184;919419;-55
2022/09/14 05:14:23;;;;;;;13.17;10.43;;;;;;;;;;768168;181;919146;-55
2022/09/14 05:16:49;;;;;;;17.33;11.43;;;;;;;;;;746644;182;922336;-55
2022/09/14 05:19:17;;;;;;;12.90;9.80;;;;;;;;;;746376;185;919633;-55
2022/09/14 05:21:41;;;;;;;17.20;10.73;;;;;;;;;;758275;184;819042;-56
2022/09/14 05:24:07;;;;;;;16.17;11.03;;;;;;;;;;756161;184;823596;-56
2022/09/14 05:26:33;;;;;;;16.20;9.77;;;;;;;;;;752608;184;919694;-57
2022/09/14 05:28:59;;;;;;;15.50;10.00;;;;;;;;;;754116;185;919598;-55
2022/09/14 05:31:24;;;;;;;14.97;11.43;;;;;;;;;;756415;184;816560;-56
2022/09/14 05:33:50;;;;;;;18.33;11.07;;;;;;;;;;752193;185;918017;-57
2022/09/14 05:36:16;;;;;;;11.70;9.73;;;;;;;;;;754004;184;917084;-57
2022/09/14 05:38:42;;;;;;;12.67;9.20;;;;;;;;;;746132;188;919909;-57
2022/09/14 05:41:08;;;;;;;14.77;10.67;;;;;;;;;;750149;184;919288;-56
2022/09/14 05:43:34;;;;;;;16.87;11.43;;;;;;;;;;749657;185;836475;-56
2022/09/14 05:46:00;;;;;;;14.73;11.30;;;;;;;;;;752635;182;919735;-56
2022/09/14 05:48:26;;;;;;;14.87;11.27;;;;;;;;;;753186;184;919809;-57
2022/09/14 05:50:54;;;;;;;16.67;12.45;;;;;;;;;;753880;184;918587;-56
2022/09/14 05:53:20;;;;;;;15.43;12.03;;;;;;;;;;758777;184;919810;-56
2022/09/14 05:55:46;;;;;;;18.47;11.90;;;;;;;;;;751330;184;904728;-56
2022/09/14 05:58:12;;;;;;;16.10;12.77;;;;;;;;;;755399;184;920391;-57
2022/09/14 06:00:38;;;;;;;22.87;14.27;;;;;;;;;;748114;185;919521;-56
2022/09/14 06:03:05;;;;;;;19.10;14.07;;;;;;;;;;760887;182;820538;-56
2022/09/14 06:05:30;;;;;;;18.40;12.70;;;;;;;;;;750811;184;920130;-57
2022/09/14 06:07:55;;;;;;;18.30;12.73;;;;;;;;;;751186;183;920493;-56
2022/09/14 06:10:21;;;;;;;18.40;12.93;;;;;;;;;;758774;184;823777;-56
2022/09/14 06:12:47;;;;;;;19.00;13.37;;;;;;;;;;754580;184;917536;-57
2022/09/14 06:15:13;;;;;;;17.27;13.13;;;;;;;;;;755926;183;817572;-56
2022/09/14 06:17:39;;;;;;;17.40;13.60;;;;;;;;;;754455;182;917858;-56
2022/09/14 06:20:06;;;;;;;18.40;13.60;;;;;;;;;;757691;184;919309;-56
2022/09/14 06:22:32;;;;;;;18.03;13.40;;;;;;;;;;755829;184;919424;-56
2022/09/14 06:24:58;;;;;;;20.17;14.07;;;;;;;;;;749887;185;895405;-57
2022/09/14 06:27:24;;;;;;;20.70;13.13;;;;;;;;;;753407;185;817014;-56
2022/09/14 06:29:52;;;;;;;18.90;13.53;;;;;;;;;;746523;185;919266;-56
2022/09/14 06:32:18;;;;;;;20.30;13.57;;;;;;;;;;755228;184;919836;-57
2022/09/14 06:34:44;;;;;;;18.17;13.07;;;;;;;;;;757746;184;920573;-57
2022/09/14 06:37:09;;;;;;;18.98;12.10;;;;;;;;;;752902;184;919663;-56
2022/09/14 06:39:35;;;;;;;16.63;13.00;;;;;;;;;;754141;182;916232;-56
2022/09/14 06:42:01;;;;;;;15.30;12.80;;;;;;;;;;753313;185;920445;-56
2022/09/14 06:44:27;;;;;;;21.40;13.57;;;;;;;;;;756626;184;922300;-56
2022/09/14 06:46:53;;;;;;;21.97;15.53;;;;;;;;;;751406;185;919573;-56
2022/09/14 06:49:21;;;;;;;18.50;13.17;;;;;;;;;;751122;184;818305;-56
2022/09/14 06:51:46;;;;;;;19.17;13.93;;;;;;;;;;752600;185;627530;-57
2022/09/14 06:54:10;;;;;;;22.03;12.77;;;;;;;;;;753056;183;919245;-58
2022/09/14 06:56:36;;;;;;;18.47;13.40;;;;;;;;;;749014;185;921546;-56
2022/09/14 06:59:02;;;;;;;17.90;11.97;;;;;;;;;;756969;184;920135;-56
2022/09/14 07:01:28;;;;;;;19.60;13.18;;;;;;;;;;753236;183;918788;-57
2022/09/14 07:03:54;;;;;;;16.17;13.20;;;;;;;;;;752807;184;913011;-57
2022/09/14 07:06:20;;;;;;;17.70;13.13;;;;;;;;;;755364;185;817396;-56
2022/09/14 07:08:46;;;;;;;17.33;13.57;;;;;;;;;;749104;182;916772;-58
2022/09/14 07:11:11;;;;;;;17.70;13.03;;;;;;;;;;750124;185;919881;-56
2022/09/14 07:13:37;;;;;;;18.70;14.80;;;;;;;;;;757032;184;919740;-57
2022/09/14 07:16:03;;;;;;;19.07;14.07;;;;;;;;;;751214;184;920119;-56
2022/09/14 07:18:31;;;;;;;18.20;13.13;;;;;;;;;;750465;182;919369;-57
2022/09/14 07:20:57;;;;;;;18.37;14.30;;;;;;;;;;750802;184;918315;-58
2022/09/14 07:23:22;;;;;;;22.60;14.57;;;;;;;;;;760216;184;818386;-56
2022/09/14 07:25:48;;;;;;;25.03;17.17;;;;;;;;;;756914;184;818864;-56
2022/09/14 07:28:15;;;;;;;16.23;14.10;;;;;;;;;;752899;184;919486;-55
2022/09/14 07:30:40;;;;;;;22.03;16.30;;;;;;;;;;754236;184;890661;-56
2022/09/14 07:33:06;;;;;;;20.63;14.87;;;;;;;;;;757583;183;919294;-56
2022/09/14 07:35:32;;;;;;;24.70;15.83;;;;;;;;;;755079;184;918902;-56
2022/09/14 07:37:58;;;;;;;21.30;14.70;;;;;;;;;;754873;185;918964;-56
2022/09/14 07:40:23;;;;;;;17.02;13.80;;;;;;;;;;753381;184;918734;-56
2022/09/14 07:42:49;;;;;;;21.73;14.77;;;;;;;;;;748965;184;918382;-56
2022/09/14 07:45:15;;;;;;;17.20;13.80;;;;;;;;;;753700;182;920246;-56
2022/09/14 07:47:41;;;;;;;20.87;14.40;;;;;;;;;;756745;185;919031;-56
2022/09/14 07:50:07;;;;;;;17.00;13.70;;;;;;;;;;751995;184;919507;-56
2022/09/14 07:52:33;;;;;;;17.70;14.43;;;;;;;;;;754418;184;916591;-56
2022/09/14 07:54:59;;;;;;;21.00;14.63;;;;;;;;;;756128;185;816871;-56
2022/09/14 07:57:25;;;;;;;19.80;14.27;;;;;;;;;;753379;185;816710;-56
2022/09/14 07:59:51;;;;;;;28.03;17.27;;;;;;;;;;751668;182;919999;-55
2022/09/14 08:02:16;;;;;;;20.33;15.77;;;;;;;;;;759310;184;919583;-56
2022/09/14 08:04:42;;;;;;;21.57;14.47;;;;;;;;;;751934;184;940262;-56
2022/09/14 08:07:08;;;;;;;19.80;14.73;;;;;;;;;;752897;184;920335;-57
2022/09/14 08:09:34;;;;;;;19.10;14.30;;;;;;;;;;755382;184;919509;-57
2022/09/14 08:12:00;;;;;;;18.80;14.87;;;;;;;;;;757680;184;816544;-56
2022/09/14 08:14:26;;;;;;;20.43;15.50;;;;;;;;;;754367;184;821284;-59
2022/09/14 08:16:52;;;;;;;16.40;13.98;;;;;;;;;;753643;184;919279;-56
2022/09/14 08:19:19;;;;;;;20.80;16.00;;;;;;;;;;754900;184;919392;-56
2022/09/14 08:21:43;;;;;;;25.67;15.30;;;;;;;;;;755660;184;921503;-56
2022/09/14 08:24:11;;;;;;;19.25;16.15;;;;;;;;;;751066;180;919874;-56
2022/09/14 08:26:38;;;;;;;22.10;15.83;;;;;;;;;;754024;182;920731;-56
2022/09/14 08:29:03;;;;;;;24.45;16.52;;;;;;;;;;752642;183;857479;-56
2022/09/14 08:31:28;;;;;;;23.00;15.37;;;;;;;;;;757363;182;919552;-57
2022/09/14 08:33:54;;;;;;;16.83;13.87;;;;;;;;;;753530;182;919517;-57
2022/09/14 08:36:20;;;;;;;16.53;12.20;;;;;;;;;;759121;182;919778;-56
2022/09/14 08:38:46;;;;;;;15.80;12.83;;;;;;;;;;748416;184;919425;-56
2022/09/14 08:41:18;;;;;;;17.60;12.83;;;;;;;;;;749121;184;922078;-56
2022/09/14 08:43:44;;;;;;;17.17;11.40;;;;;;;;;;760964;184;920579;-55
2022/09/14 08:46:10;;;;;;;15.87;13.17;;;;;;;;;;756718;183;896064;-56
2022/09/14 08:48:35;;;;;;;14.73;11.88;;;;;;;;;;752757;183;819385;-56
2022/09/14 08:51:01;;;;;;;21.10;12.30;;;;;;;;;;749125;185;919430;-57
2022/09/14 08:53:27;;;;;;;16.47;12.57;;;;;;;;;;748026;185;919479;-56
2022/09/14 08:55:53;;;;;;;17.83;11.50;;;;;;;;;;749559;185;917519;-56
2022/09/14 08:58:37;;;;;;;14.45;11.55;;;;;;;;;;753836;184;918213;-57
2022/09/14 09:01:06;;;;;;;16.60;12.67;;;;;;;;;;753823;184;916751;-56
2022/09/14 09:03:38;;;;;;;16.80;12.33;;;;;;;;;;753466;185;917293;-57
2022/09/14 09:06:10;;;;;;;16.03;12.83;;;;;;;;;;746738;188;919018;-57
2022/09/14 09:08:38;;;;;;;14.57;12.67;;;;;;;;;;753170;183;919847;-56
2022/09/14 09:11:06;;;;;;;17.43;14.17;;;;;;;;;;746756;185;919044;-57
2022/09/14 09:13:30;;;;;;;17.37;13.93;;;;;;;;;;757100;184;911767;-56
2022/09/14 09:15:57;;;;;;;18.37;13.80;;;;;;;;;;746944;185;929315;-56
2022/09/14 09:18:23;;;;;;;16.03;13.60;;;;;;;;;;750645;185;920835;-56
2022/09/14 09:20:50;;;;;;;20.00;15.23;;;;;;;;;;752710;183;919169;-57
2022/09/14 09:23:17;;;;;;;18.07;13.60;;;;;;;;;;756510;184;920264;-56
2022/09/14 09:26:02;;;;;;;19.70;13.30;;;;;;;;;;753652;184;824108;-54
2022/09/14 09:28:28;;;;;;;17.87;13.27;;;;;;;;;;752487;184;931609;-56
2022/09/14 09:30:54;;;;;;;16.80;14.10;;;;;;;;;;752925;184;918142;-56
2022/09/14 09:33:21;;;;;;;17.00;14.60;;;;;;;;;;753546;185;887969;-55
2022/09/14 09:35:47;;;;;;;16.80;13.73;;;;;;;;;;754402;184;919615;-57
2022/09/14 09:38:12;;;;;;;15.20;12.53;;;;;;;;;;756571;184;919180;-56
2022/09/14 09:40:39;;;;;;;17.47;14.20;;;;;;;;;;751390;183;918929;-56
2022/09/14 09:43:04;;;;;;;18.77;15.20;;;;;;;;;;753162;184;825811;-56
2022/09/14 09:45:36;;;;;;;17.60;13.27;;;;;;;;;;755655;183;915868;-57
2022/09/14 09:48:03;;;;;;;18.03;13.87;;;;;;;;;;755244;184;916438;-56
2022/09/14 09:50:29;;;;;;;18.90;13.87;;;;;;;;;;759574;181;817506;-56
2022/09/14 09:52:55;;;;;;;17.13;14.17;;;;;;;;;;754514;184;918431;-56
2022/09/14 09:55:21;;;;;;;16.13;13.83;;;;;;;;;;754211;182;913777;-56
2022/09/14 09:57:46;;;;;;;17.93;13.30;;;;;;;;;;754542;184;917963;-57
2022/09/14 10:00:21;;;;;;;17.97;14.17;;;;;;;;;;754827;185;862059;-56
2022/09/14 10:02:47;;;;;;;20.10;14.80;;;;;;;;;;748969;185;917560;-55
2022/09/14 10:05:29;;;;;;;16.83;14.03;;;;;;;;;;748953;182;925794;-56
2022/09/14 10:07:58;;;;;;;19.50;13.40;;;;;;;;;;750390;185;919643;-56
2022/09/14 10:10:41;;;;;;;18.93;14.23;;;;;;;;;;753791;184;919262;-56
2022/09/14 10:13:05;;;;;;;17.97;13.77;;;;;;;;;;751792;183;919497;-55
2022/09/14 10:15:31;;;;;;;17.17;12.90;;;;;;;;;;746989;187;942745;-55
2022/09/14 10:18:08;;;;;;;19.40;15.50;;;;;;;;;;754506;184;920540;-55
2022/09/14 10:20:33;;;;;;;15.67;13.17;;;;;;;;;;754463;184;918521;-56
2022/09/14 10:23:05;;;;;;;17.63;14.20;;;;;;;;;;750107;184;918999;-57
2022/09/14 10:25:31;;;;;;;19.63;14.70;;;;;;;;;;753018;185;917542;-55
2022/09/14 10:27:57;;;;;;;17.13;15.33;;;;;;;;;;749395;184;816425;-56
2022/09/14 10:30:23;;;;;;;22.13;15.13;;;;;;;;;;748339;185;941971;-55
2022/09/14 10:32:52;;;;;;;18.27;14.50;;;;;;;;;;758931;184;832805;-55
2022/09/14 10:35:18;;;;;;;16.73;13.80;;;;;;;;;;749344;185;915048;-56
2022/09/14 10:37:44;;;;;;;17.00;13.70;;;;;;;;;;748528;185;910697;-56
2022/09/14 10:40:14;;;;;;;20.30;14.80;;;;;;;;;;750908;186;817195;-55
2022/09/14 10:42:38;;;;;;;18.00;13.43;;;;;;;;;;758171;184;918726;-56
2022/09/14 10:45:08;;;;;;;15.43;11.83;;;;;;;;;;749938;185;919167;-55
2022/09/14 10:47:40;;;;;;;16.00;12.60;;;;;;;;;;752102;185;915727;-56
2022/09/14 10:50:20;;;;;;;14.70;12.40;;;;;;;;;;752635;184;919343;-55
2022/09/14 10:52:52;;;;;;;11.67;10.23;;;;;;;;;;755326;184;920778;-55
2022/09/14 10:55:30;;;;;;;12.45;10.52;;;;;;;;;;756883;184;924468;-55
2022/09/14 10:57:55;;;;;;;14.57;11.00;;;;;;;;;;755286;184;819418;-55
2022/09/14 11:00:21;;;;;;;12.73;10.27;;;;;;;;;;748589;185;902227;-56
2022/09/14 11:02:53;;;;;;;12.30;10.23;;;;;;;;;;755232;184;817522;-57
2022/09/14 11:05:22;;;;;;;11.13;9.93;;;;;;;;;;753649;185;918675;-56
2022/09/14 11:07:53;;;;;;;12.87;10.70;;;;;;;;;;762970;184;919301;-57
2022/09/14 11:10:21;;;;;;;12.87;10.33;;;;;;;;;;749476;185;911125;-56
2022/09/14 11:12:49;;;;;;;12.77;9.45;;;;;;;;;;755440;184;916060;-56
2022/09/14 11:15:15;;;;;;;13.67;9.73;;;;;;;;;;750945;185;912543;-57
2022/09/14 11:17:42;;;;;;;15.27;9.80;;;;;;;;;;755471;184;918953;-56
2022/09/14 11:20:25;;;;;;;11.23;8.50;;;;;;;;;;750266;185;919904;-57
2022/09/14 11:23:05;;;;;;;12.80;8.70;;;;;;;;;;755420;184;919596;-56
2022/09/14 11:25:36;;;;;;;9.97;8.20;;;;;;;;;;753149;184;919252;-56
2022/09/14 11:28:03;;;;;;;9.93;8.10;;;;;;;;;;757195;184;916616;-56
2022/09/14 11:30:37;;;;;;;11.23;9.20;;;;;;;;;;756488;185;922123;-56
2022/09/14 11:33:03;;;;;;;10.77;8.30;;;;;;;;;;762106;184;814796;-57
2022/09/14 11:35:31;;;;;;;10.40;8.70;;;;;;;;;;755589;184;919697;-56
2022/09/14 11:37:59;;;;;;;14.73;8.97;;;;;;;;;;750371;184;818554;-56
2022/09/14 11:40:31;;;;;;;12.70;8.70;;;;;;;;;;758586;185;818506;-55
2022/09/14 11:42:58;;;;;;;11.33;9.27;;;;;;;;;;754157;185;927314;-56
2022/09/14 11:45:24;;;;;;;12.70;9.00;;;;;;;;;;747065;184;916617;-55
2022/09/14 11:47:51;;;;;;;10.55;7.10;;;;;;;;;;746755;185;919256;-56
2022/09/14 11:50:19;;;;;;;11.13;8.40;;;;;;;;;;756089;183;918893;-55
2022/09/14 11:52:45;;;;;;;9.80;8.67;;;;;;;;;;749918;182;926641;-56
2022/09/14 11:55:11;;;;;;;12.30;10.00;;;;;;;;;;753592;182;919232;-55
2022/09/14 11:57:37;;;;;;;11.70;9.93;;;;;;;;;;754369;185;919774;-57
2022/09/14 12:00:05;;;;;;;11.10;8.97;;;;;;;;;;754679;184;920174;-56
2022/09/14 12:02:29;;;;;;;9.53;8.13;;;;;;;;;;750388;181;922883;-56
2022/09/14 12:05:00;;;;;;;9.70;7.03;;;;;;;;;;753235;180;872476;-55
2022/09/14 12:07:32;;;;;;;8.80;7.63;;;;;;;;;;756639;184;714752;-54
2022/09/14 12:09:58;;;;;;;11.87;7.20;;;;;;;;;;757528;184;917934;-56
2022/09/14 12:12:27;;;;;;;11.20;7.07;;;;;;;;;;755926;184;919345;-55
2022/09/14 12:14:52;;;;;;;13.93;7.90;;;;;;;;;;749879;184;908831;-57
2022/09/14 12:17:22;;;;;;;8.03;6.77;;;;;;;;;;756455;184;931347;-56
2022/09/14 12:19:48;;;;;;;8.57;7.10;;;;;;;;;;756118;183;816697;-56
2022/09/14 12:22:19;;;;;;;10.73;6.90;;;;;;;;;;752033;184;817105;-55
2022/09/14 12:24:45;;;;;;;9.20;6.70;;;;;;;;;;755213;184;919780;-56
2022/09/14 12:27:13;;;;;;;11.80;6.50;;;;;;;;;;754547;184;817507;-56
2022/09/14 12:29:39;;;;;;;8.87;7.10;;;;;;;;;;754412;184;919625;-55
2022/09/14 12:32:05;;;;;;;9.90;6.90;;;;;;;;;;755670;182;913180;-56
2022/09/14 12:34:32;;;;;;;13.53;6.97;;;;;;;;;;750915;185;919819;-58
2022/09/14 12:36:57;;;;;;;10.50;6.40;;;;;;;;;;753324;184;911581;-55
2022/09/14 12:39:22;;;;;;;10.10;6.83;;;;;;;;;;747502;184;916762;-55
2022/09/14 12:42:03;;;;;;;17.50;7.50;;;;;;;;;;760497;181;918732;-56
2022/09/14 12:44:29;;;;;;;9.20;6.70;;;;;;;;;;758952;183;919728;-55
2022/09/14 12:46:55;;;;;;;9.37;6.97;;;;;;;;;;753762;184;920084;-56
2022/09/14 12:49:21;;;;;;;8.93;6.60;;;;;;;;;;752377;184;919489;-57
2022/09/14 12:51:47;;;;;;;14.20;7.83;;;;;;;;;;753341;184;918865;-57
2022/09/14 12:54:16;;;;;;;11.90;6.93;;;;;;;;;;757452;184;620984;-54
2022/09/14 12:56:46;;;;;;;9.87;6.40;;;;;;;;;;753006;182;918896;-54
2022/09/14 12:59:14;;;;;;;8.10;6.47;;;;;;;;;;750339;185;918863;-54
2022/09/14 13:02:00;;;;;;;7.50;5.60;;;;;;;;;;754550;182;818805;-55
2022/09/14 13:04:26;;;;;;;7.53;6.23;;;;;;;;;;754685;183;921052;-54
2022/09/14 13:06:52;;;;;;;7.47;6.20;;;;;;;;;;760804;184;917215;-56
2022/09/14 13:09:18;;;;;;;8.63;6.70;;;;;;;;;;752075;182;710127;-55
2022/09/14 13:11:43;;;;;;;9.50;7.00;;;;;;;;;;754206;184;816919;-55
2022/09/14 13:14:10;;;;;;;8.97;6.73;;;;;;;;;;760820;181;817268;-54
2022/09/14 13:16:39;;;;;;;7.67;6.30;;;;;;;;;;751715;184;919859;-56
2022/09/14 13:19:05;;;;;;;8.80;6.70;;;;;;;;;;754084;184;923263;-54
2022/09/14 13:21:31;;;;;;;6.23;5.63;;;;;;;;;;756709;184;931703;-56
2022/09/14 13:23:56;;;;;;;8.10;5.87;;;;;;;;;;748079;184;921385;-54
2022/09/14 13:26:22;;;;;;;6.63;5.73;;;;;;;;;;748541;184;919009;-55
2022/09/14 13:28:48;;;;;;;8.40;6.37;;;;;;;;;;755643;184;919733;-57
2022/09/14 13:31:14;;;;;;;8.30;5.60;;;;;;;;;;756591;183;817708;-55
2022/09/14 13:33:40;;;;;;;6.37;5.37;;;;;;;;;;756764;184;921068;-55
2022/09/14 13:36:06;;;;;;;7.77;5.67;;;;;;;;;;754659;184;920710;-56
2022/09/14 13:38:31;;;;;;;7.13;6.00;;;;;;;;;;754770;185;817000;-53
2022/09/14 13:41:03;;;;;;;6.83;5.37;;;;;;;;;;753438;184;818208;-55
2022/09/14 13:43:29;;;;;;;7.30;5.03;;;;;;;;;;755833;184;899245;-55
2022/09/14 13:45:55;;;;;;;8.57;4.50;;;;;;;;;;755280;184;918061;-55
2022/09/14 13:48:21;;;;;;;8.47;4.40;;;;;;;;;;758800;185;615561;-59
2022/09/14 13:50:47;;;;;;;5.60;4.47;;;;;;;;;;760023;180;622034;-57
2022/09/14 13:53:18;;;;;;;5.57;4.50;;;;;;;;;;751933;185;629078;-56
2022/09/14 13:55:44;;;;;;;6.40;5.10;;;;;;;;;;753958;185;815647;-56
2022/09/14 13:58:12;;;;;;;5.40;4.13;;;;;;;;;;755016;184;817273;-55
2022/09/14 14:00:43;;;;;;;4.30;3.60;;;;;;;;;;753038;182;919257;-54
2022/09/14 14:03:08;;;;;;;4.90;3.63;;;;;;;;;;749862;182;916365;-54
2022/09/14 14:05:34;;;;;;;4.80;3.60;;;;;;;;;;752746;185;920447;-55
2022/09/14 14:08:00;;;;;;;5.93;3.57;;;;;;;;;;738986;186;914266;-55
2022/09/14 14:10:41;;;;;;;5.20;4.00;;;;;;;;;;748570;183;919538;-55
2022/09/14 14:13:07;;;;;;;5.57;3.90;;;;;;;;;;748953;186;919289;-55
2022/09/14 14:15:33;;;;;;;6.73;3.80;;;;;;;;;;754962;185;902315;-56